X  Sluiten METAR luchtvaart weer gegevens      EBBR Brussels Airport
Temperatuur
17°C Temperatuur
13°C Dauwpunt
77% Vochtigheid



Wind
32 KM/U
20 MPH
9 M/S
17 KTS



210°
ZZW
Huidig weer

Wat bewolking Wat bewolking
Luchtdruk 1001.92 (hPa) - 29.59 (inHg)
Zicht 6.2 (mijl) - 10 (km)
Vliegveld
Vliegveld code EBBR

Locatie : Brussels Airport
Afstand: 14 (km)

Metar:
EBBR 201550Z 21017KT 9999 FEW023 17/13 Q1002 TEMPO 21015G25KT

Tijd: 2021-10-20 17:50 CEST